Time;durP1;ratioP1;P1;durP2;ratioP2;P2;SDS_P1;SDS_P2;PMS_P1;PMS_P2;Temp;Humidity;BMP_temperature;BMP_pressure;BME280_temperature;BME280_humidity;BME280_pressure;Samples;Min_cycle;Max_cycle;Signal;HPM_P1;HPM_P2
2021/04/01 00:01:00;;;;;;;230.03;24.43;;;;;;;2.85;81.99;101465.38;1813672;79;21194;-42
2021/04/01 00:03:29;;;;;;;620.75;51.98;;;;;;;2.90;82.01;101462.54;1813552;79;20954;-42
2021/04/01 00:05:57;;;;;;;470.38;39.53;;;;;;;2.93;81.94;101460.50;1813634;79;20950;-41
2021/04/01 00:08:25;;;;;;;536.98;39.35;;;;;;;2.95;81.84;101458.84;1813712;79;21022;-41
2021/04/01 00:10:55;;;;;;;181.85;24.40;;;;;;;2.98;81.74;101457.22;1813704;77;21057;-42
2021/04/01 00:13:23;;;;;;;130.18;20.05;;;;;;;2.97;81.68;101452.94;1813727;79;21374;-42
2021/04/01 00:15:52;;;;;;;98.33;19.37;;;;;;;2.98;81.64;101458.50;1813705;79;21041;-42
2021/04/01 00:18:20;;;;;;;385.80;34.30;;;;;;;2.97;81.61;101454.64;1813674;79;20891;-42
2021/04/01 00:20:48;;;;;;;460.63;41.80;;;;;;;2.95;81.59;101452.02;1813634;79;20982;-42
2021/04/01 00:23:16;;;;;;;324.07;28.70;;;;;;;2.94;81.58;101449.44;1813691;79;20974;-41
2021/04/01 00:25:45;;;;;;;295.07;30.37;;;;;;;2.94;81.54;101445.60;1813592;79;21310;-42
2021/04/01 00:28:12;;;;;;;373.35;33.78;;;;;;;2.94;81.53;101443.05;1813602;79;20994;-42
2021/04/01 00:30:40;;;;;;;523.28;41.02;;;;;;;2.94;81.50;101449.44;1813660;79;20950;-42
2021/04/01 00:33:07;;;;;;;317.65;27.62;;;;;;;2.88;81.33;101438.19;1813607;79;21026;-41
2021/04/01 00:35:35;;;;;;;355.25;35.00;;;;;;;2.84;81.58;101436.80;1813656;79;20947;-41
2021/04/01 00:38:04;;;;;;;423.52;39.05;;;;;;;2.77;82.12;101440.85;1813616;79;21104;-41
2021/04/01 00:40:32;;;;;;;425.95;38.75;;;;;;;2.70;82.39;101436.39;1813517;77;20950;-42
2021/04/01 00:42:59;;;;;;;454.20;41.75;;;;;;;2.59;82.52;101439.47;1813655;79;20986;-42
2021/04/01 00:45:27;;;;;;;465.10;44.63;;;;;;;2.48;82.77;101434.45;1813593;79;20974;-42
2021/04/01 00:47:55;;;;;;;362.85;33.88;;;;;;;2.39;83.13;101437.98;1813605;77;20994;-42
2021/04/01 00:50:28;;;;;;;309.65;29.27;;;;;;;2.28;83.45;101441.52;1813635;79;21419;-42
2021/04/01 00:52:57;;;;;;;70.72;20.43;;;;;;;2.14;83.76;101435.94;1813542;79;21049;-42
2021/04/01 00:55:26;;;;;;;164.60;28.40;;;;;;;2.07;84.21;101432.73;1813665;79;20990;-42
2021/04/01 00:57:57;;;;;;;133.37;24.32;;;;;;;2.09;84.78;101433.66;1813612;79;21017;-42
2021/04/01 01:00:26;;;;;;;94.28;21.93;;;;;;;2.14;84.95;101434.66;1813741;79;20939;-42
2021/04/01 01:02:54;;;;;;;111.28;22.25;;;;;;;2.17;84.94;101432.23;1813652;79;21191;-42
2021/04/01 01:05:23;;;;;;;739.40;62.30;;;;;;;2.21;85.05;101431.50;1813478;79;21054;-42
2021/04/01 01:07:51;;;;;;;171.20;26.68;;;;;;;2.19;85.00;101428.03;1813598;78;21010;-43
2021/04/01 01:10:25;;;;;;;128.40;26.48;;;;;;;2.18;84.97;101434.36;1813555;79;20967;-42
2021/04/01 01:12:53;;;;;;;181.82;35.83;;;;;;;2.15;85.04;101428.34;1813681;78;21148;-42
2021/04/01 01:15:22;;;;;;;60.10;22.37;;;;;;;2.07;84.93;101424.67;1813595;79;21187;-43
2021/04/01 01:17:52;;;;;;;93.60;23.70;;;;;;;1.96;84.89;101425.61;1813517;79;21022;-42
2021/04/01 01:20:24;;;;;;;102.35;25.40;;;;;;;1.88;85.05;101428.72;1813669;79;21475;-43
2021/04/01 01:22:53;;;;;;;93.20;23.67;;;;;;;1.80;85.07;101429.34;1809823;79;20978;-42
2021/04/01 01:25:21;;;;;;;83.27;23.20;;;;;;;1.72;85.04;101423.09;1813574;79;21030;-42
2021/04/01 01:27:49;;;;;;;137.07;24.85;;;;;;;1.65;85.18;101416.94;1813564;79;21188;-42
2021/04/01 01:30:19;;;;;;;171.98;24.52;;;;;;;1.63;85.40;101423.64;1813495;77;21104;-42
2021/04/01 01:32:49;;;;;;;165.50;25.37;;;;;;;1.58;85.51;101420.08;1813601;79;21041;-42
2021/04/01 01:35:24;;;;;;;163.52;25.65;;;;;;;1.58;85.87;101418.80;1813588;79;20955;-42
2021/04/01 01:38:04;;;;;;;;;;;;;;;1.64;86.31;101413.93;1813048;77;21030;-42
2021/04/01 01:40:31;;;;;;;603.83;50.15;;;;;;;1.70;86.57;101410.69;1813607;77;21351;-42
2021/04/01 01:43:01;;;;;;;391.47;40.67;;;;;;;1.76;86.80;101401.95;1813511;79;20927;-42
2021/04/01 01:45:29;;;;;;;409.03;42.48;;;;;;;1.81;87.02;101400.84;1813638;79;21639;-42
2021/04/01 01:47:57;;;;;;;415.25;43.75;;;;;;;1.88;87.19;101395.09;1813497;78;20915;-42
2021/04/01 01:50:29;;;;;;;357.65;37.63;;;;;;;1.96;87.11;101394.95;1813623;78;21204;-42
2021/04/01 01:52:57;;;;;;;413.03;43.78;;;;;;;2.04;87.15;101391.77;1813673;79;21366;-42
2021/04/01 01:55:25;;;;;;;467.72;45.43;;;;;;;2.08;86.97;101391.93;1813561;77;21069;-42
2021/04/01 01:57:52;;;;;;;351.70;33.65;;;;;;;2.10;87.01;101384.30;1813586;79;20950;-42
2021/04/01 02:00:30;;;;;;;161.55;29.82;;;;;;;2.15;87.11;101390.44;1813574;77;20903;-42
2021/04/01 02:03:01;;;;;;;201.25;28.77;;;;;;;2.23;87.15;101389.37;1813658;78;20983;-42
2021/04/01 02:05:31;;;;;;;208.63;27.48;;;;;;;2.30;87.06;101386.21;1813555;79;21441;-42
2021/04/01 02:07:58;;;;;;;264.75;27.67;;;;;;;2.37;86.98;101383.41;1813555;78;21037;-42
2021/04/01 02:10:28;;;;;;;209.30;27.17;;;;;;;2.41;86.92;101382.28;1813590;79;20927;-42
2021/04/01 02:12:58;;;;;;;215.35;27.58;;;;;;;2.47;86.79;101377.77;1813501;79;20990;-42
2021/04/01 02:15:29;;;;;;;366.12;37.10;;;;;;;2.53;86.76;101371.98;1813598;78;20998;-42
2021/04/01 02:18:11;;;;;;;329.68;38.23;;;;;;;2.58;86.58;101369.98;1813525;79;21473;-42
2021/04/01 02:20:45;;;;;;;364.88;38.48;;;;;;;2.64;86.50;101374.82;1813592;78;21013;-42
2021/04/01 02:23:29;;;;;;;175.95;28.77;;;;;;;2.70;86.34;101374.59;1813512;78;20931;-42
2021/04/01 02:25:58;;;;;;;144.85;29.30;;;;;;;2.77;86.24;101368.37;1813521;78;20982;-42
2021/04/01 02:28:28;;;;;;;117.20;26.87;;;;;;;2.84;86.12;101369.02;1813526;79;21045;-41
2021/04/01 02:31:02;;;;;;;113.80;26.60;;;;;;;2.88;85.98;101363.16;1813527;79;21423;-41
2021/04/01 02:33:31;;;;;;;102.50;25.92;;;;;;;2.95;85.93;101362.92;1813427;79;21034;-41
2021/04/01 02:35:59;;;;;;;92.30;25.75;;;;;;;2.99;85.78;101363.03;1813645;78;21562;-42
2021/04/01 02:38:27;;;;;;;96.10;27.75;;;;;;;3.06;85.59;101361.51;1813497;79;21013;-46
2021/04/01 02:40:56;;;;;;;95.75;25.08;;;;;;;3.10;85.35;101354.80;1813621;77;21583;-41
2021/04/01 02:43:33;;;;;;;67.85;23.90;;;;;;;3.14;85.26;101356.61;1813571;79;21589;-42
2021/04/01 02:46:05;;;;;;;90.92;25.10;;;;;;;3.22;85.21;101356.81;1813455;79;21021;-41
2021/04/01 02:48:33;;;;;;;60.95;25.17;;;;;;;3.26;85.04;101340.28;1817342;78;20966;-42
2021/04/01 02:51:02;;;;;;;66.15;24.80;;;;;;;3.30;84.89;101352.35;1818365;77;21152;-41
2021/04/01 02:53:30;;;;;;;75.67;26.82;;;;;;;3.35;84.75;101351.17;1818452;79;20943;-41
2021/04/01 02:55:58;;;;;;;78.78;26.77;;;;;;;3.38;84.71;101345.28;1818459;79;21358;-41
2021/04/01 03:00:08;;;;;;;108.05;29.30;;;;;;;3.51;85.07;101351.14;1815892;78;22483;-41
2021/04/01 03:02:29;;;;;;;144.45;32.28;;;;;;;3.50;85.13;101350.69;1786503;80;21006;-41
2021/04/01 03:04:57;;;;;;;127.85;28.60;;;;;;;3.51;85.06;101343.89;1788933;80;21252;-42
2021/04/01 03:07:25;;;;;;;75.52;23.98;;;;;;;3.53;84.95;101347.35;1788811;80;21003;-41
2021/04/01 03:09:53;;;;;;;71.62;24.67;;;;;;;3.56;84.79;101343.58;1788937;80;21002;-42
2021/04/01 03:12:21;;;;;;;58.45;24.65;;;;;;;3.58;84.61;101344.48;1788910;80;21026;-41
2021/04/01 03:14:49;;;;;;;59.20;23.02;;;;;;;3.59;84.42;101352.22;1789067;80;20959;-41
2021/04/01 03:17:17;;;;;;;48.95;22.20;;;;;;;3.62;84.23;101353.13;1788884;80;21203;-43
2021/04/01 03:19:46;;;;;;;45.60;22.15;;;;;;;3.63;84.07;101345.89;1788735;80;21013;-42
2021/04/01 03:22:14;;;;;;;92.37;23.98;;;;;;;3.65;83.89;101349.35;1788947;80;20916;-43
2021/04/01 03:24:42;;;;;;;289.68;33.88;;;;;;;3.67;83.66;101340.89;1788817;80;21014;-42
2021/04/01 03:27:09;;;;;;;292.27;32.38;;;;;;;3.70;83.58;101342.24;1788917;80;20939;-42
2021/04/01 03:29:37;;;;;;;57.40;22.25;;;;;;;3.72;83.53;101339.70;1788979;80;21202;-42
2021/04/01 03:32:06;;;;;;;44.98;22.30;;;;;;;3.74;83.32;101340.20;1788833;80;21289;-41
2021/04/01 03:34:33;;;;;;;38.33;21.35;;;;;;;3.73;83.13;101334.63;1788803;80;21149;-41
2021/04/01 03:37:01;;;;;;;38.28;21.75;;;;;;;3.72;83.04;101330.34;1788887;80;20935;-42
2021/04/01 03:39:29;;;;;;;39.15;20.82;;;;;;;3.71;82.90;101331.17;1788888;80;20943;-42
2021/04/01 03:41:56;;;;;;;40.95;21.52;;;;;;;3.70;82.88;101328.55;1761288;80;21362;-43
2021/04/01 03:44:23;;;;;;;38.02;20.43;;;;;;;3.68;82.80;101325.09;1757773;81;21053;-42
2021/04/01 03:46:51;;;;;;;45.98;21.33;;;;;;;3.69;82.71;101321.70;1757699;81;21034;-42
2021/04/01 03:49:19;;;;;;;42.75;22.13;;;;;;;3.68;82.66;101322.13;1757649;81;20954;-41
2021/04/01 03:51:46;;;;;;;96.70;22.35;;;;;;;3.70;82.61;101314.07;1757642;81;21006;-43
2021/04/01 03:54:14;;;;;;;149.87;24.95;;;;;;;3.72;82.57;101310.25;1757670;81;21381;-41
2021/04/01 03:56:48;;;;;;;368.90;36.83;;;;;;;3.74;82.58;101315.87;1757628;81;21077;-43
2021/04/01 03:59:13;;;;;;;309.67;34.18;;;;;;;3.78;82.58;101316.78;1750001;81;21053;-43
2021/04/01 04:04:39;;;;;;;345.33;37.48;;;;;;;3.91;82.41;101314.09;1744581;82;21031;-42
2021/04/01 04:15:01;;;;;;;178.85;29.07;;;;;;;4.26;81.91;101314.42;1724928;82;20991;-42
2021/04/01 04:17:17;;;;;;;46.42;20.48;;;;;;;4.31;81.72;101312.42;1742444;82;20943;-42
2021/04/01 04:19:46;;;;;;;36.65;20.70;;;;;;;4.37;81.67;101306.56;1743915;82;20975;-42
2021/04/01 04:22:14;;;;;;;34.13;20.40;;;;;;;4.46;81.56;101322.13;1744035;82;21065;-41
2021/04/01 04:24:41;;;;;;;39.83;20.72;;;;;;;4.47;81.56;101316.59;1744081;82;21089;-42
2021/04/01 04:27:35;;;;;;;32.33;20.08;;;;;;;4.51;81.52;101313.66;1743984;82;20939;-42
2021/04/01 04:29:44;;;;;;;34.98;19.98;;;;;;;4.53;81.44;101319.67;1741574;82;21026;-42
2021/04/01 04:32:13;;;;;;;49.58;21.73;;;;;;;4.55;81.40;101314.20;1743997;82;21141;-42
2021/04/01 04:34:41;;;;;;;38.05;20.48;;;;;;;4.59;81.32;101315.55;1743947;82;20987;-43
2021/04/01 04:37:08;;;;;;;34.45;19.25;;;;;;;4.67;81.12;101308.41;1744065;82;21023;-42
2021/04/01 04:39:37;;;;;;;34.10;19.27;;;;;;;4.75;80.94;101306.88;1743937;82;21105;-43
2021/04/01 04:42:06;;;;;;;34.00;19.35;;;;;;;4.84;81.00;101308.33;1744067;80;21011;-42
2021/04/01 04:44:34;;;;;;;38.60;20.10;;;;;;;4.92;81.07;101294.37;1744058;82;21206;-43
2021/04/01 04:47:02;;;;;;;33.25;20.45;;;;;;;5.02;81.42;101310.80;1743941;82;21015;-41
2021/04/01 04:49:31;;;;;;;41.28;19.67;;;;;;;5.13;80.98;101304.58;1744090;82;21345;-42
2021/04/01 04:51:59;;;;;;;34.25;19.48;;;;;;;5.27;80.67;101304.38;1743917;82;20979;-41
2021/04/01 04:54:33;;;;;;;36.93;20.27;;;;;;;5.39;80.26;101302.44;1744050;82;21050;-42
2021/04/01 04:57:11;;;;;;;23.70;15.57;;;;;;;5.53;80.17;101300.53;1744336;82;21476;-43
2021/04/01 04:59:42;;;;;;;37.90;19.15;;;;;;;5.66;79.80;101294.73;1743261;82;21185;-42
2021/04/01 05:04:55;;;;;;;45.28;19.92;;;;;;;5.94;78.79;101293.00;1744167;82;21023;-41
2021/04/01 05:07:20;;;;;;;37.17;19.87;;;;;;;6.09;78.35;101287.23;1743958;82;21035;-42
2021/04/01 05:09:48;;;;;;;40.03;19.20;;;;;;;6.23;78.02;101285.72;1744068;82;22258;-42
2021/04/01 05:12:16;;;;;;;30.75;18.67;;;;;;;6.37;77.46;101288.47;1743883;82;20979;-42
2021/04/01 05:14:43;;;;;;;30.15;18.77;;;;;;;6.52;76.36;101288.19;1744016;82;21042;-42
2021/04/01 05:17:14;;;;;;;30.97;17.80;;;;;;;6.66;75.79;101289.63;1744008;82;20952;-42
2021/04/01 05:19:41;;;;;;;33.30;19.75;;;;;;;6.77;75.08;101280.34;1744040;82;20951;-42
2021/04/01 05:22:22;;;;;;;27.75;17.48;;;;;;;6.88;74.59;101280.02;1743983;82;21260;-42
2021/04/01 05:24:50;;;;;;;53.87;18.23;;;;;;;6.99;74.00;101270.27;1743805;82;21018;-42
2021/04/01 05:27:27;;;;;;;28.02;16.50;;;;;;;7.07;73.01;101270.31;1744004;82;21059;-42
2021/04/01 05:29:58;;;;;;;34.08;17.23;;;;;;;7.13;71.98;101276.38;1744010;82;21768;-42
2021/04/01 05:32:29;;;;;;;31.60;16.30;;;;;;;7.32;71.61;101270.11;1744035;82;21098;-42
2021/04/01 05:34:59;;;;;;;39.55;15.40;;;;;;;7.53;70.53;101268.55;1744181;82;22268;-42
2021/04/01 05:37:28;;;;;;;39.03;16.25;;;;;;;7.69;70.04;101269.52;1744012;82;21018;-43
2021/04/01 05:39:57;;;;;;;31.95;15.63;;;;;;;7.91;69.36;101269.21;1743931;80;21022;-43
2021/04/01 05:42:26;;;;;;;38.05;16.10;;;;;;;8.12;68.34;101267.60;1744008;82;21038;-42
2021/04/01 05:47:36;;;;;;;26.93;15.93;;;;;;;8.37;67.24;101270.28;1744012;82;21415;-42
2021/04/01 05:50:14;;;;;;;28.40;16.57;;;;;;;8.55;66.61;101269.52;1743640;82;21197;-42
2021/04/01 05:53:20;;;;;;;31.05;16.17;;;;;;;8.66;66.05;101266.97;1742511;82;21027;-42
2021/04/01 06:04:01;;;;;;;55.23;17.62;;;;;;;8.88;63.98;101258.41;1749491;82;21050;-42
2021/04/01 06:06:40;;;;;;;36.08;16.57;;;;;;;8.98;63.79;101254.13;1749507;82;20966;-43
2021/04/01 06:09:05;;;;;;;36.95;17.65;;;;;;;9.07;63.64;101255.86;1749400;82;21062;-42
2021/04/01 06:11:32;;;;;;;34.85;18.55;;;;;;;9.09;62.84;101254.13;1749519;82;21042;-42
2021/04/01 06:14:11;;;;;;;46.70;18.87;;;;;;;9.07;62.59;101257.14;1749541;82;20959;-42
2021/04/01 06:16:41;;;;;;;35.73;18.60;;;;;;;9.01;62.70;101250.24;1749630;82;21500;-42
2021/04/01 06:19:16;;;;;;;33.40;17.90;;;;;;;9.01;63.01;101251.98;1749515;82;20927;-42
2021/04/01 06:21:48;;;;;;;39.95;18.92;;;;;;;8.98;62.57;101248.95;1749615;82;21030;-42
2021/04/01 06:24:25;;;;;;;54.18;19.00;;;;;;;8.99;62.36;101248.09;1749659;82;21583;-42
2021/04/01 06:27:08;;;;;;;75.57;19.27;;;;;;;8.95;62.64;101257.12;1749604;82;22228;-43
2021/04/01 06:29:34;;;;;;;110.95;20.05;;;;;;;8.95;62.33;101253.24;1722632;82;21101;-42
2021/04/01 06:32:03;;;;;;;37.45;18.30;;;;;;;8.95;62.31;101248.08;1746761;82;20947;-43
2021/04/01 06:34:35;;;;;;;29.92;18.65;;;;;;;8.99;62.28;101253.70;1749582;82;21475;-42
2021/04/01 06:37:04;;;;;;;27.35;18.67;;;;;;;9.06;62.19;101256.27;1749642;82;21026;-43
2021/04/01 06:39:32;;;;;;;38.23;16.85;;;;;;;9.13;61.83;101254.55;1749506;82;21073;-42
2021/04/01 06:42:14;;;;;;;78.60;20.85;;;;;;;9.26;62.12;101245.53;1749462;80;21007;-42
2021/04/01 06:44:54;;;;;;;28.70;17.60;;;;;;;9.42;61.74;101248.96;1749310;82;21196;-43
2021/04/01 06:47:24;;;;;;;32.28;18.87;;;;;;;9.62;60.66;101248.92;1749040;82;21031;-42
2021/04/01 06:50:19;;;;;;;36.38;18.95;;;;;;;9.76;60.41;101243.31;1749558;82;21038;-42
2021/04/01 06:52:24;;;;;;;40.40;18.10;;;;;;;9.90;58.83;101243.69;1745662;82;21358;-42
2021/04/01 06:55:04;;;;;;;38.20;17.62;;;;;;;9.90;59.44;101241.09;1749436;82;21085;-41
2021/04/01 07:03:17;;;;;;;29.95;17.25;;;;;;;10.02;58.30;101238.48;1749432;82;21048;-42
2021/04/01 07:05:55;;;;;;;29.72;17.37;;;;;;;10.06;57.81;101238.90;1749561;82;21343;-41
2021/04/01 07:09:26;;;;;;;28.25;18.20;;;;;;;10.20;57.92;101236.67;1749492;82;21034;-42
2021/04/01 07:11:25;;;;;;;37.53;19.35;;;;;;;10.24;57.80;101239.70;1725234;82;21141;-42
2021/04/01 07:13:53;;;;;;;30.62;18.62;;;;;;;10.28;57.65;101237.52;1725808;82;21733;-42
2021/04/01 07:16:34;;;;;;;34.27;18.23;;;;;;;10.33;57.51;101230.59;1722955;82;21022;-42
2021/04/01 07:45:10;;;;;;;26.30;17.20;;;;;;;11.31;55.38;101200.56;1746516;80;20975;-42
2021/04/01 07:47:33;;;;;;;34.00;17.57;;;;;;;11.42;55.10;101196.58;1711010;82;21115;-42
2021/04/01 07:50:11;;;;;;;33.33;19.92;;;;;;;11.58;54.67;101193.38;1776304;80;21504;-42
2021/04/01 07:52:41;;;;;;;32.35;18.77;;;;;;;11.62;54.55;101192.05;1730452;80;21039;-42
2021/04/01 08:06:27;;;;;;;27.95;16.48;;;;;;;12.26;53.55;101170.53;1847117;77;20954;-42
2021/04/01 08:09:03;;;;;;;102.47;18.48;;;;;;;12.43;51.89;101162.92;1859951;77;20994;-43
2021/04/01 08:11:38;;;;;;;30.90;17.17;;;;;;;12.56;52.22;101164.89;1835501;77;20994;-43
2021/04/01 08:14:15;;;;;;;35.08;15.00;;;;;;;12.78;50.87;101152.44;1832598;77;20962;-43
2021/04/01 08:16:53;;;;;;;29.12;14.25;;;;;;;12.73;49.92;101149.91;1828436;77;20994;-42
2021/04/01 08:19:24;;;;;;;50.35;14.25;;;;;;;12.77;50.81;101149.42;1833126;77;21191;-42
2021/04/01 08:21:54;;;;;;;74.22;14.70;;;;;;;13.09;49.52;101140.20;1825839;77;21626;-43
2021/04/01 08:24:36;;;;;;;117.87;15.95;;;;;;;13.35;49.28;101149.27;1835407;77;21084;-43
2021/04/01 08:27:16;;;;;;;183.87;19.57;;;;;;;13.61;48.97;101137.52;1829066;77;21009;-43
2021/04/01 08:35:18;;;;;;;32.83;11.35;;;;;;;14.42;45.50;101125.35;1826061;77;21045;-42
2021/04/01 08:40:39;;;;;;;65.42;11.55;;;;;;;14.56;43.90;101111.56;1833012;77;21146;-43
2021/04/01 08:43:57;;;;;;;78.83;12.75;;;;;;;14.65;43.08;101108.72;1840772;77;21352;-42
2021/04/01 08:46:48;;;;;;;18.50;10.80;;;;;;;14.80;42.40;101109.27;1812185;77;20989;-43
2021/04/01 08:49:44;;;;;;;26.23;10.13;;;;;;;14.76;40.37;101098.05;1823814;77;21092;-42
2021/04/01 08:52:41;;;;;;;14.60;9.18;;;;;;;14.39;40.36;101092.41;1775105;78;21024;-44
2021/04/01 08:55:16;;;;;;;17.60;9.45;;;;;;;14.53;40.49;101098.61;1794010;78;21045;-42
2021/04/01 08:58:12;;;;;;;16.75;7.78;;;;;;;14.50;39.11;101092.15;1809398;78;22275;-43
2021/04/01 09:00:42;;;;;;;44.58;8.63;;;;;;;14.37;36.34;101087.26;1737581;80;21583;-42
2021/04/01 09:03:14;;;;;;;14.23;8.20;;;;;;;14.27;38.05;101080.54;1795558;79;21120;-42
2021/04/01 09:05:55;;;;;;;13.62;9.10;;;;;;;14.44;38.34;101070.17;1749633;79;21041;-44
2021/04/01 09:08:27;;;;;;;10.98;7.80;;;;;;;14.60;36.56;101076.72;1745841;81;21184;-43
2021/04/01 09:10:58;;;;;;;20.55;7.40;;;;;;;14.43;34.31;101069.77;1799550;78;20994;-43
2021/04/01 09:13:33;;;;;;;18.12;9.23;;;;;;;14.36;36.49;101070.35;1784751;80;21039;-43
2021/04/01 09:18:31;;;;;;;14.43;10.05;;;;;;;14.79;38.49;101064.55;1789633;79;21148;-43
2021/04/01 09:21:01;;;;;;;18.70;9.83;;;;;;;14.89;38.53;101062.53;1778325;79;20996;-43
2021/04/01 09:23:40;;;;;;;17.27;10.03;;;;;;;15.10;38.09;101055.90;1781203;79;21474;-42
2021/04/01 09:26:10;;;;;;;23.20;10.28;;;;;;;15.18;38.62;101053.08;1805569;78;21077;-43
2021/04/01 09:28:43;;;;;;;38.42;12.05;;;;;;;15.30;38.20;101049.27;1803976;78;21621;-43
2021/04/01 09:31:13;;;;;;;24.05;12.07;;;;;;;15.29;39.32;101038.44;1786549;80;20965;-43
2021/04/01 09:33:41;;;;;;;19.10;11.10;;;;;;;15.10;40.03;101044.17;1821881;78;20875;-44
2021/04/01 09:36:18;;;;;;;23.70;11.15;;;;;;;14.91;40.69;101040.76;1800167;78;21339;-43
2021/04/01 09:38:52;;;;;;;31.75;12.47;;;;;;;15.05;41.39;101031.72;1800774;78;22605;-43
2021/04/01 09:41:32;;;;;;;29.67;11.85;;;;;;;15.23;39.64;101031.17;1764045;80;20957;-44
2021/04/01 09:44:05;;;;;;;32.73;11.63;;;;;;;15.08;40.14;101026.41;1801875;78;20994;-43
2021/04/01 09:46:34;;;;;;;34.35;11.70;;;;;;;15.08;38.60;101021.20;1804360;78;21507;-43
2021/04/01 09:49:08;;;;;;;14.95;9.53;;;;;;;14.86;39.58;101023.09;1798906;78;21391;-44
2021/04/01 09:51:35;;;;;;;29.75;10.55;;;;;;;15.02;40.07;101017.44;1808298;78;20959;-42
2021/04/01 09:54:04;;;;;;;28.12;10.15;;;;;;;15.26;37.66;101016.33;1776181;80;21010;-43
2021/04/01 09:56:33;;;;;;;29.42;9.45;;;;;;;15.09;37.33;101014.62;1802359;78;21586;-42
2021/04/01 09:59:01;;;;;;;24.85;10.13;;;;;;;15.08;38.52;101010.77;1775958;79;21180;-43
2021/04/01 10:01:38;;;;;;;20.70;9.30;;;;;;;15.27;37.96;101012.82;1773410;79;21209;-43
2021/04/01 10:04:12;;;;;;;45.38;10.18;;;;;;;15.31;37.87;101011.86;1788980;79;21006;-43
2021/04/01 10:06:46;;;;;;;25.32;8.80;;;;;;;15.32;37.83;101001.36;1782739;79;21500;-43
2021/04/01 10:09:29;;;;;;;16.73;8.03;;;;;;;15.46;38.03;100994.42;1778483;79;21065;-43
2021/04/01 10:12:07;;;;;;;30.75;8.00;;;;;;;15.80;35.59;100994.70;1784659;79;21097;-43
2021/04/01 10:14:36;;;;;;;43.15;9.25;;;;;;;15.84;35.58;100986.77;1780322;79;21393;-43
2021/04/01 10:17:09;;;;;;;28.47;9.78;;;;;;;15.86;36.73;100990.19;1739818;79;21099;-42
2021/04/01 10:19:43;;;;;;;22.87;8.95;;;;;;;15.87;37.24;100981.45;1770704;79;21038;-43
2021/04/01 10:22:29;;;;;;;65.20;10.93;;;;;;;15.84;36.34;100979.78;1768389;79;21084;-42
2021/04/01 10:25:14;;;;;;;17.65;9.30;;;;;;;16.01;35.55;100981.87;1784195;79;21156;-44
2021/04/01 10:30:20;;;;;;;14.93;8.83;;;;;;;15.92;36.07;100971.30;1855277;76;22802;-43
2021/04/01 10:33:15;;;;;;;25.62;9.28;;;;;;;15.96;35.09;100965.98;1759747;80;21006;-42
2021/04/01 10:35:42;;;;;;;26.23;9.18;;;;;;;16.19;36.13;100960.84;1788190;78;21269;-45
2021/04/01 10:38:12;;;;;;;32.55;8.50;;;;;;;16.63;37.13;100963.23;1766906;78;21033;-42
2021/04/01 10:40:40;;;;;;;19.65;8.15;;;;;;;16.74;34.81;100961.55;1803977;78;20951;-43
2021/04/01 10:43:09;;;;;;;13.08;7.28;;;;;;;16.65;35.17;100951.83;1797869;78;21385;-43
2021/04/01 10:45:43;;;;;;;15.10;7.58;;;;;;;16.60;34.53;100952.45;1800091;78;21163;-44
2021/04/01 10:48:28;;;;;;;12.55;6.95;;;;;;;16.65;34.34;100946.61;1789840;78;21364;-43
2021/04/01 10:51:02;;;;;;;18.82;7.58;;;;;;;16.64;34.36;100942.29;1807291;78;21026;-43
2021/04/01 10:53:26;;;;;;;20.92;7.85;;;;;;;16.63;35.12;100927.95;1798820;78;21074;-43
2021/04/01 10:56:04;;;;;;;21.23;8.30;;;;;;;16.90;35.04;100929.16;1801049;78;21046;-43
2021/04/01 10:58:32;;;;;;;19.37;9.03;;;;;;;17.07;35.15;100922.03;1808249;78;20935;-43
2021/04/01 11:01:00;;;;;;;21.15;7.40;;;;;;;17.06;36.54;100912.48;1814251;78;21372;-44
2021/04/01 11:03:44;;;;;;;11.10;6.55;;;;;;;17.32;34.92;100914.07;1798365;78;20974;-44
2021/04/01 11:06:13;;;;;;;45.23;7.92;;;;;;;17.40;32.94;100912.47;1804505;78;20971;-44
2021/04/01 11:08:43;;;;;;;22.35;5.65;;;;;;;17.35;32.08;100901.34;1803039;78;21022;-43
2021/04/01 11:11:11;;;;;;;136.82;13.03;;;;;;;17.21;32.41;100902.72;1790009;79;20931;-44
2021/04/01 11:13:45;;;;;;;24.35;6.75;;;;;;;17.18;33.24;100907.23;1801682;78;21361;-44
2021/04/01 11:16:15;;;;;;;10.60;6.30;;;;;;;17.30;33.02;100896.28;1801228;78;21077;-44
2021/04/01 11:18:47;;;;;;;16.27;5.90;;;;;;;17.45;33.24;100886.95;1791214;78;20964;-43
2021/04/01 11:21:15;;;;;;;22.00;5.90;;;;;;;17.54;32.43;100889.66;1793758;78;20998;-42
2021/04/01 11:23:44;;;;;;;45.70;6.90;;;;;;;17.53;33.08;100887.48;1822149;78;21423;-43
2021/04/01 11:26:11;;;;;;;77.42;8.28;;;;;;;17.37;33.13;100872.88;1804428;78;22375;-43
2021/04/01 11:28:50;;;;;;;25.48;6.10;;;;;;;17.37;32.80;100878.58;1796303;78;21054;-43
2021/04/01 11:31:29;;;;;;;39.98;7.28;;;;;;;17.23;33.49;100874.73;1795167;78;21014;-44
2021/04/01 11:33:58;;;;;;;59.50;8.00;;;;;;;17.35;31.96;100864.23;1790820;78;21037;-43
2021/04/01 11:36:40;;;;;;;39.33;7.03;;;;;;;17.30;32.93;100867.94;1791056;78;20948;-43
2021/04/01 11:41:53;;;;;;;13.72;6.30;;;;;;;17.44;33.98;100853.86;1856679;76;22768;-43
2021/04/01 11:44:21;;;;;;;24.47;6.85;;;;;;;17.50;33.04;100848.84;1788341;79;20935;-43
2021/04/01 11:46:48;;;;;;;33.60;7.37;;;;;;;17.76;32.71;100843.80;1789200;79;21397;-43
2021/04/01 11:49:16;;;;;;;37.67;7.50;;;;;;;18.07;33.45;100837.30;1781361;79;21038;-43
2021/04/01 11:51:44;;;;;;;85.03;10.45;;;;;;;18.33;32.69;100832.66;1758785;79;21011;-43
2021/04/01 11:54:14;;;;;;;74.10;11.95;;;;;;;18.35;33.94;100828.20;1734243;81;21630;-42
2021/04/01 11:56:46;;;;;;;221.47;15.85;;;;;;;18.22;35.03;100825.73;1735714;81;21018;-42
2021/04/01 11:59:16;;;;;;;128.62;11.05;;;;;;;18.44;34.47;100813.84;1764896;79;21442;-43
2021/04/01 12:01:55;;;;;;;256.73;17.00;;;;;;;18.66;33.24;100809.75;1763854;79;21046;-43
2021/04/01 12:04:25;;;;;;;28.83;6.25;;;;;;;18.87;30.20;100807.48;1768425;79;21062;-43
2021/04/01 12:06:53;;;;;;;30.27;6.65;;;;;;;18.72;30.20;100796.82;1756010;80;21098;-44
2021/04/01 12:09:21;;;;;;;47.13;7.17;;;;;;;18.30;30.83;100798.71;1746768;80;21758;-43
2021/04/01 12:11:48;;;;;;;43.52;6.60;;;;;;;18.16;31.04;100791.48;1775820;80;21192;-43
2021/04/01 12:14:17;;;;;;;69.67;7.85;;;;;;;17.90;31.10;100790.84;1764647;80;21093;-43
2021/04/01 12:16:46;;;;;;;7.10;5.37;;;;;;;17.78;31.75;100788.77;1769207;80;21057;-43
2021/04/01 12:19:14;;;;;;;31.12;7.00;;;;;;;17.78;30.81;100788.77;1755981;80;21198;-43
2021/04/01 12:21:41;;;;;;;17.45;6.53;;;;;;;17.85;31.80;100788.05;1806142;78;20978;-43
2021/04/01 12:24:10;;;;;;;12.58;6.53;;;;;;;17.96;30.71;100775.33;1780141;80;21208;-43
2021/04/01 12:26:49;;;;;;;18.57;7.12;;;;;;;17.92;31.19;100775.08;1772104;80;21059;-43
2021/04/01 12:29:17;;;;;;;42.25;7.10;;;;;;;17.91;31.99;100770.28;1758613;80;21010;-43
2021/04/01 12:31:51;;;;;;;41.30;7.12;;;;;;;17.92;31.77;100765.44;1782391;79;21026;-43
2021/04/01 13:00:44;;;;;;;25.40;5.97;;;;;;;17.53;32.12;100714.77;1802329;79;22961;-41
2021/04/01 13:03:08;;;;;;;23.62;5.85;;;;;;;17.83;30.46;100713.97;1771310;80;21055;-42
2021/04/01 13:05:39;;;;;;;42.17;6.45;;;;;;;17.77;30.03;100708.53;1773451;80;21259;-43
2021/04/01 13:08:24;;;;;;;110.78;12.05;;;;;;;17.69;30.17;100694.95;1777839;80;21081;-44
2021/04/01 13:10:40;;;;;;;75.50;9.00;;;;;;;17.65;30.75;100698.15;1755721;80;21059;-43
2021/04/01 13:13:08;;;;;;;18.27;6.40;;;;;;;17.60;31.49;100696.20;1759895;80;21639;-44
2021/04/01 13:15:38;;;;;;;30.60;5.53;;;;;;;17.72;31.83;100685.17;1735860;81;21095;-44
2021/04/01 13:18:10;;;;;;;13.08;6.60;;;;;;;17.93;31.71;100679.89;1707728;83;21223;-43
2021/04/01 13:20:38;;;;;;;29.92;6.87;;;;;;;18.06;31.12;100674.52;1702430;83;21027;-45
2021/04/01 13:23:22;;;;;;;36.40;6.00;;;;;;;18.04;31.08;100678.12;1707076;83;21035;-42
2021/04/01 13:25:38;;;;;;;20.65;5.80;;;;;;;18.04;29.79;100668.48;1700010;83;21594;-43